createdAt,value
2022-10-30T00:00:25.826Z,10.43
2022-10-30T00:02:52.862Z,10.52
2022-10-30T00:05:20.945Z,9.25
2022-10-30T00:07:48.707Z,8.73
2022-10-30T00:10:16.785Z,7.18
2022-10-30T00:12:44.320Z,7.90
2022-10-30T00:15:11.973Z,10.30
2022-10-30T00:17:39.062Z,6.80
2022-10-30T00:20:06.537Z,8.75
2022-10-30T00:22:35.851Z,7.15
2022-10-30T00:25:03.937Z,6.13
2022-10-30T00:27:30.937Z,8.45
2022-10-30T00:29:57.807Z,7.07
2022-10-30T00:32:25.120Z,7.25
2022-10-30T00:34:52.148Z,12.13
2022-10-30T00:37:19.149Z,7.38
2022-10-30T00:39:46.083Z,7.32
2022-10-30T00:42:16.765Z,9.15
2022-10-30T00:44:49.716Z,9.15
2022-10-30T00:47:38.116Z,6.68
2022-10-30T00:53:05.205Z,7.65
2022-10-30T00:55:44.067Z,9.30
2022-10-30T00:58:16.144Z,8.65
2022-10-30T01:03:12.282Z,8.85
2022-10-30T01:05:39.534Z,7.88
2022-10-30T01:08:06.496Z,7.30
2022-10-30T01:10:33.638Z,8.27
2022-10-30T01:13:02.086Z,7.55
2022-10-30T01:15:35.830Z,8.82
2022-10-30T01:18:15.979Z,9.45
2022-10-30T01:21:09.191Z,8.15
2022-10-30T01:23:54.629Z,8.85
2022-10-30T01:26:39.902Z,8.00
2022-10-30T01:29:30.796Z,8.82
2022-10-30T01:32:04.025Z,11.30
2022-10-30T01:34:55.348Z,9.77
2022-10-30T01:37:48.084Z,9.38
2022-10-30T01:40:17.593Z,7.18
2022-10-30T01:42:49.185Z,6.90
2022-10-30T01:45:34.743Z,9.38
2022-10-30T01:48:45.439Z,7.88
2022-10-30T01:51:12.426Z,10.52
2022-10-30T01:54:01.682Z,8.60
2022-10-30T01:56:40.027Z,8.00
2022-10-30T01:59:11.402Z,10.20
2022-10-30T02:01:40.069Z,8.38
2022-10-30T02:04:09.243Z,8.13
2022-10-30T02:06:38.084Z,8.35
2022-10-30T02:09:05.503Z,10.02
2022-10-30T02:11:33.980Z,9.95
2022-10-30T02:14:04.867Z,6.88
2022-10-30T02:16:37.555Z,7.32
2022-10-30T02:19:04.604Z,7.72
2022-10-30T02:21:31.723Z,7.75
2022-10-30T02:23:58.613Z,7.25
2022-10-30T02:26:25.488Z,8.15
2022-10-30T02:28:52.444Z,6.78
2022-10-30T02:31:19.523Z,8.80
2022-10-30T02:33:47.480Z,8.00
2022-10-30T02:36:15.657Z,10.27
2022-10-30T02:38:43.653Z,8.88
2022-10-30T02:41:11.469Z,7.05
2022-10-30T02:43:39.088Z,8.00
2022-10-30T02:46:06.012Z,9.95
2022-10-30T02:48:33.739Z,15.63
2022-10-30T02:51:01.567Z,10.43
2022-10-30T02:53:30.056Z,9.40
2022-10-30T02:56:03.422Z,9.18
2022-10-30T02:58:30.646Z,8.90
2022-10-30T03:00:57.542Z,10.77
2022-10-30T03:03:24.493Z,8.57
2022-10-30T03:05:51.260Z,9.15
2022-10-30T03:08:18.265Z,12.52
2022-10-30T03:10:45.185Z,8.68
2022-10-30T03:13:11.949Z,9.80
2022-10-30T03:15:38.829Z,8.90
2022-10-30T03:18:06.008Z,10.43
2022-10-30T03:20:38.969Z,8.38
2022-10-30T03:23:05.918Z,8.10
2022-10-30T03:25:32.678Z,10.55
2022-10-30T03:28:00.411Z,9.10
2022-10-30T03:30:27.674Z,8.18
2022-10-30T03:32:54.524Z,11.88
2022-10-30T03:35:21.789Z,17.83
2022-10-30T03:37:48.610Z,11.10
2022-10-30T03:40:15.550Z,8.65
2022-10-30T03:42:42.465Z,9.70
2022-10-30T03:45:09.725Z,9.05
2022-10-30T03:47:40.120Z,7.93
2022-10-30T03:50:09.227Z,8.18
2022-10-30T03:52:36.120Z,12.48
2022-10-30T03:55:02.884Z,8.82
2022-10-30T03:57:29.837Z,8.02
2022-10-30T04:00:11.977Z,12.07
2022-10-30T04:02:51.888Z,12.20
2022-10-30T04:05:21.539Z,8.50
2022-10-30T04:07:49.649Z,12.95
2022-10-30T04:10:20.949Z,8.73
2022-10-30T04:12:52.949Z,9.98
2022-10-30T04:15:19.829Z,12.35
2022-10-30T04:17:51.599Z,12.55
2022-10-30T04:20:20.056Z,8.65
2022-10-30T04:22:47.585Z,10.00
2022-10-30T04:25:19.324Z,14.27
2022-10-30T04:27:49.599Z,9.10
2022-10-30T04:30:20.173Z,8.85
2022-10-30T04:32:49.244Z,9.32
2022-10-30T04:35:20.088Z,8.27
2022-10-30T04:37:57.674Z,9.60
2022-10-30T04:40:27.670Z,8.70
2022-10-30T04:43:00.135Z,9.57
2022-10-30T04:45:27.577Z,10.98
2022-10-30T04:48:02.165Z,9.52
2022-10-30T04:50:32.477Z,8.82
2022-10-30T04:53:08.050Z,10.38
2022-10-30T04:55:35.390Z,8.07
2022-10-30T04:58:03.180Z,16.42
2022-10-30T05:00:33.110Z,14.55
2022-10-30T05:03:18.299Z,13.77
2022-10-30T05:05:46.004Z,10.70
2022-10-30T05:08:12.790Z,13.98
2022-10-30T05:10:42.738Z,22.38
2022-10-30T05:13:11.595Z,9.02
2022-10-30T05:15:38.527Z,8.55
2022-10-30T05:18:05.481Z,9.60
2022-10-30T05:20:32.727Z,7.50
2022-10-30T05:23:00.336Z,8.32
2022-10-30T05:25:28.163Z,10.43
2022-10-30T05:27:59.767Z,7.47
2022-10-30T05:30:31.550Z,12.30
2022-10-30T05:33:01.632Z,12.35
2022-10-30T05:35:29.989Z,10.05
2022-10-30T05:37:58.097Z,12.18
2022-10-30T05:40:25.249Z,9.40
2022-10-30T05:42:52.726Z,33.25
2022-10-30T05:45:20.784Z,9.15
2022-10-30T05:48:03.065Z,11.50
2022-10-30T05:50:34.341Z,10.05
2022-10-30T05:53:14.543Z,7.63
2022-10-30T05:55:41.460Z,9.40
2022-10-30T05:58:16.871Z,11.43
2022-10-30T06:00:45.674Z,10.77
2022-10-30T06:03:17.750Z,9.05
2022-10-30T06:05:46.851Z,11.90
2022-10-30T06:08:17.836Z,10.32
2022-10-30T06:10:46.417Z,8.38
2022-10-30T06:13:16.218Z,6.50
2022-10-30T06:15:51.080Z,14.45
2022-10-30T06:18:19.361Z,11.63
2022-10-30T06:20:48.997Z,9.85
2022-10-30T06:23:43.792Z,10.20
2022-10-30T06:29:10.595Z,11.18
2022-10-30T06:31:37.612Z,13.10
2022-10-30T06:34:05.506Z,8.35
2022-10-30T06:36:34.505Z,10.80
2022-10-30T06:39:01.502Z,8.25
2022-10-30T06:41:35.552Z,8.82
2022-10-30T06:44:16.333Z,6.78
2022-10-30T06:46:43.228Z,13.20
2022-10-30T06:49:10.072Z,19.92
2022-10-30T06:51:39.044Z,9.55
2022-10-30T06:54:05.929Z,205.07
2022-10-30T06:56:38.882Z,20.92
2022-10-30T06:59:12.488Z,9.43
2022-10-30T07:01:45.779Z,7.80
2022-10-30T07:04:16.028Z,7.95
2022-10-30T07:06:43.982Z,9.65
2022-10-30T07:09:11.065Z,8.52
2022-10-30T07:11:40.241Z,9.90
2022-10-30T07:14:25.675Z,10.90
2022-10-30T07:17:11.577Z,13.63
2022-10-30T07:19:40.186Z,10.48
2022-10-30T07:22:07.023Z,13.30
2022-10-30T07:24:35.240Z,70.07
2022-10-30T07:27:13.900Z,7.30
2022-10-30T07:29:45.028Z,13.38
2022-10-30T07:32:21.019Z,14.73
2022-10-30T07:35:07.240Z,9.93
2022-10-30T07:37:54.452Z,12.43
2022-10-30T07:40:29.364Z,7.90
2022-10-30T07:43:06.468Z,6.97
2022-10-30T07:45:33.891Z,16.90
2022-10-30T07:48:23.831Z,9.43
2022-10-30T07:51:04.436Z,16.20
2022-10-30T07:53:31.964Z,8.82
2022-10-30T07:55:59.412Z,11.48
2022-10-30T07:58:45.800Z,11.43
2022-10-30T08:01:31.155Z,6.03
2022-10-30T08:04:07.729Z,10.13
2022-10-30T08:06:34.669Z,8.43
2022-10-30T08:09:02.543Z,9.65
2022-10-30T08:11:30.721Z,7.80
2022-10-30T08:13:59.523Z,8.15
2022-10-30T08:16:26.500Z,13.50
2022-10-30T08:18:53.793Z,17.30
2022-10-30T08:21:24.122Z,9.80
2022-10-30T08:23:59.755Z,6.70
2022-10-30T08:26:29.830Z,8.30
2022-10-30T08:28:56.974Z,10.05
2022-10-30T08:31:25.608Z,12.82
2022-10-30T08:34:01.341Z,12.05
2022-10-30T08:36:34.195Z,14.75
2022-10-30T08:39:04.147Z,6.63
2022-10-30T08:41:58.142Z,7.43
2022-10-30T08:44:26.572Z,6.22
2022-10-30T08:47:13.631Z,13.23
2022-10-30T08:49:40.753Z,12.23
2022-10-30T08:52:10.870Z,10.23
2022-10-30T08:54:39.143Z,8.85
2022-10-30T08:57:05.978Z,7.68
2022-10-30T08:59:32.827Z,11.38
2022-10-30T09:02:00.378Z,10.77
2022-10-30T09:04:47.534Z,11.18
2022-10-30T09:07:44.140Z,14.38
2022-10-30T09:10:30.141Z,16.40
2022-10-30T09:12:58.514Z,18.65
2022-10-30T09:15:26.617Z,9.30
2022-10-30T09:18:00.767Z,19.42
2022-10-30T09:20:28.935Z,11.18
2022-10-30T09:22:56.173Z,10.90
2022-10-30T09:25:23.447Z,13.55
2022-10-30T09:28:00.513Z,10.25
2022-10-30T09:30:41.113Z,13.30
2022-10-30T09:33:09.585Z,11.52
2022-10-30T09:35:54.540Z,10.25
2022-10-30T09:38:21.527Z,14.50
2022-10-30T09:41:00.763Z,13.02
2022-10-30T09:43:52.782Z,11.02
2022-10-30T09:46:26.034Z,14.00
2022-10-30T09:49:06.241Z,60.38
2022-10-30T09:51:45.521Z,19.10
2022-10-30T09:54:26.029Z,38.15
2022-10-30T09:57:15.450Z,15.32
2022-10-30T10:00:00.174Z,20.48
2022-10-30T10:02:54.914Z,21.98
2022-10-30T10:05:28.404Z,18.55
2022-10-30T10:08:22.545Z,9.38
2022-10-30T10:11:27.561Z,8.52
2022-10-30T10:14:01.936Z,8.05
2022-10-30T10:16:36.693Z,8.88
2022-10-30T10:19:15.290Z,8.02
2022-10-30T10:22:06.995Z,16.45
2022-10-30T10:24:38.990Z,10.35
2022-10-30T10:27:43.108Z,6.13
2022-10-30T10:30:21.435Z,9.18
2022-10-30T10:36:13.652Z,8.23
2022-10-30T10:39:12.517Z,11.75
2022-10-30T10:41:58.476Z,6.45
2022-10-30T10:44:39.242Z,9.75
2022-10-30T10:47:07.352Z,13.80
2022-10-30T10:49:59.501Z,8.23
2022-10-30T10:52:41.915Z,10.02
2022-10-30T10:55:19.045Z,8.25
2022-10-30T10:57:48.207Z,7.38
2022-10-30T11:00:23.626Z,6.78
2022-10-30T11:03:13.904Z,7.35
2022-10-30T11:05:51.566Z,9.80
2022-10-30T11:08:26.769Z,13.85
2022-10-30T11:10:59.203Z,9.23
2022-10-30T11:13:31.755Z,7.07
2022-10-30T11:16:18.459Z,8.60
2022-10-30T11:18:48.560Z,7.18
2022-10-30T11:21:23.320Z,5.55
2022-10-30T11:23:50.922Z,7.35
2022-10-30T11:26:17.688Z,8.35
2022-10-30T11:29:12.139Z,13.77
2022-10-30T11:31:43.646Z,14.20
2022-10-30T11:34:19.434Z,6.55
2022-10-30T11:36:47.982Z,7.95
2022-10-30T11:39:18.674Z,12.05
2022-10-30T11:42:07.211Z,21.05
2022-10-30T11:44:38.232Z,8.38
2022-10-30T11:47:07.712Z,8.57
2022-10-30T11:49:57.083Z,5.57
2022-10-30T11:52:26.447Z,8.55
2022-10-30T11:54:57.092Z,94.38
2022-10-30T11:57:37.835Z,17.50
2022-10-30T12:00:14.529Z,7.13
2022-10-30T12:02:44.393Z,13.98
2022-10-30T12:05:26.238Z,7.57
2022-10-30T12:08:22.651Z,9.43
2022-10-30T12:11:05.715Z,7.93
2022-10-30T12:13:39.074Z,7.82
2022-10-30T12:16:09.825Z,18.38
2022-10-30T12:18:37.314Z,11.50
2022-10-30T12:21:04.569Z,7.22
2022-10-30T12:23:32.528Z,9.82
2022-10-30T12:26:02.173Z,7.30
2022-10-30T12:28:31.662Z,8.80
2022-10-30T12:31:21.513Z,6.57
2022-10-30T12:36:48.221Z,9.05
2022-10-30T12:39:24.342Z,6.47
2022-10-30T12:42:02.011Z,22.10
2022-10-30T12:44:34.403Z,8.68
2022-10-30T12:47:08.643Z,7.13
2022-10-30T12:49:47.975Z,5.97
2022-10-30T12:52:52.370Z,7.70
2022-10-30T12:55:24.330Z,12.00
2022-10-30T12:58:23.947Z,13.73
2022-10-30T13:00:54.325Z,6.97
2022-10-30T13:03:30.679Z,12.82
2022-10-30T13:06:02.365Z,6.90
2022-10-30T13:08:36.585Z,6.10
2022-10-30T13:11:17.137Z,6.68
2022-10-30T13:13:49.584Z,7.18
2022-10-30T13:16:22.298Z,12.25
2022-10-30T13:18:57.982Z,9.43
2022-10-30T13:22:00.193Z,8.57
2022-10-30T13:25:02.585Z,9.07
2022-10-30T13:27:38.923Z,7.22
2022-10-30T13:30:36.647Z,9.55
2022-10-30T13:33:28.608Z,4.07
2022-10-30T13:36:09.323Z,8.05
2022-10-30T13:38:39.310Z,10.50
2022-10-30T13:41:39.881Z,6.50
2022-10-30T13:44:18.668Z,9.82
2022-10-30T13:47:36.601Z,12.63
2022-10-30T13:50:38.799Z,7.82
2022-10-30T13:53:13.200Z,5.95
2022-10-30T13:55:42.230Z,7.53
2022-10-30T13:58:36.992Z,12.43
2022-10-30T14:01:17.465Z,5.57
2022-10-30T14:03:59.218Z,6.40
2022-10-30T14:06:38.190Z,8.25
2022-10-30T14:09:15.763Z,7.22
2022-10-30T14:14:28.391Z,5.88
2022-10-30T14:17:18.015Z,10.80
2022-10-30T14:20:14.332Z,6.93
2022-10-30T14:22:41.759Z,18.70
2022-10-30T14:25:16.060Z,11.18
2022-10-30T14:27:43.346Z,11.13
2022-10-30T14:30:19.599Z,7.03
2022-10-30T14:32:51.887Z,9.98
2022-10-30T14:35:37.054Z,10.40
2022-10-30T14:38:09.626Z,23.17
2022-10-30T14:40:44.015Z,23.00
2022-10-30T14:43:29.206Z,32.22
2022-10-30T14:46:20.085Z,44.72
2022-10-30T14:49:03.919Z,41.03
2022-10-30T14:51:56.294Z,50.20
2022-10-30T14:54:23.149Z,56.55
2022-10-30T14:56:53.064Z,41.75
2022-10-30T14:59:20.221Z,53.15
2022-10-30T15:02:15.249Z,51.63
2022-10-30T15:05:23.799Z,48.45
2022-10-30T15:07:56.327Z,66.78
2022-10-30T15:10:32.150Z,45.92
2022-10-30T15:13:20.324Z,42.20
2022-10-30T15:16:01.416Z,37.67
2022-10-30T15:18:30.729Z,59.80
2022-10-30T15:21:04.375Z,46.97
2022-10-30T15:23:36.737Z,114.55
2022-10-30T15:26:09.766Z,82.28
2022-10-30T15:28:39.033Z,71.43
2022-10-30T15:31:24.004Z,92.13
2022-10-30T15:33:51.228Z,85.35
2022-10-30T15:36:30.575Z,94.95
2022-10-30T15:39:04.549Z,102.50
2022-10-30T15:41:32.298Z,78.65
2022-10-30T15:43:59.217Z,62.03
2022-10-30T15:46:26.735Z,47.92
2022-10-30T15:48:53.587Z,45.05
2022-10-30T15:51:23.365Z,40.38
2022-10-30T15:53:54.832Z,36.10
2022-10-30T15:57:08.090Z,51.13
2022-10-30T15:59:30.631Z,38.25
2022-10-30T16:01:59.017Z,40.95
2022-10-30T16:04:31.343Z,46.30
2022-10-30T16:07:17.749Z,51.55
2022-10-30T16:09:54.017Z,40.85
2022-10-30T16:12:21.356Z,157.45
2022-10-30T16:14:48.249Z,74.97
2022-10-30T16:17:15.295Z,58.67
2022-10-30T16:19:48.332Z,56.08
2022-10-30T16:22:21.511Z,49.10
2022-10-30T16:24:48.512Z,55.88
2022-10-30T16:27:18.669Z,74.30
2022-10-30T16:29:58.315Z,60.47
2022-10-30T16:32:30.609Z,46.78
2022-10-30T16:34:58.774Z,50.58
2022-10-30T16:37:32.382Z,35.13
2022-10-30T16:40:05.134Z,40.90
2022-10-30T16:42:33.725Z,44.45
2022-10-30T16:45:12.635Z,67.35
2022-10-30T16:47:44.734Z,55.85
2022-10-30T16:50:16.009Z,43.97
2022-10-30T16:52:43.573Z,32.70
2022-10-30T16:55:21.804Z,42.58
2022-10-30T16:57:57.384Z,36.35
2022-10-30T17:00:28.441Z,79.85
2022-10-30T17:02:58.694Z,58.80
2022-10-30T17:05:30.865Z,59.47
2022-10-30T17:08:00.882Z,58.10
2022-10-30T17:10:35.605Z,78.30
2022-10-30T17:13:31.190Z,48.45
2022-10-30T17:15:59.520Z,64.35
2022-10-30T17:18:33.297Z,50.90
2022-10-30T17:21:10.806Z,59.38
2022-10-30T17:23:45.227Z,56.13
2022-10-30T17:26:12.965Z,54.08
2022-10-30T17:28:40.783Z,44.47
2022-10-30T17:31:35.656Z,72.97
2022-10-30T17:34:20.158Z,46.28
2022-10-30T17:36:48.729Z,56.80
2022-10-30T17:39:16.140Z,40.33
2022-10-30T17:41:44.121Z,47.40
2022-10-30T17:44:19.929Z,53.45
2022-10-30T17:46:47.218Z,41.05
2022-10-30T17:49:40.286Z,37.85
2022-10-30T17:52:07.105Z,45.10
2022-10-30T17:54:34.794Z,41.97
2022-10-30T17:57:01.608Z,43.58
2022-10-30T17:59:28.444Z,39.45
2022-10-30T18:01:55.470Z,47.35
2022-10-30T18:04:22.378Z,43.60
2022-10-30T18:06:49.490Z,44.35
2022-10-30T18:09:16.408Z,51.50
2022-10-30T18:11:43.287Z,49.00
2022-10-30T18:14:11.645Z,51.20
2022-10-30T18:16:39.057Z,45.95
2022-10-30T18:19:10.867Z,45.95
2022-10-30T18:24:11.448Z,20.55
2022-10-30T18:26:40.700Z,13.77
2022-10-30T18:29:09.187Z,10.57
2022-10-30T18:31:36.065Z,12.02
2022-10-30T18:34:03.051Z,14.02
2022-10-30T18:36:30.241Z,15.25
2022-10-30T18:38:58.265Z,14.40
2022-10-30T18:41:29.680Z,15.02
2022-10-30T18:43:56.530Z,13.90
2022-10-30T18:46:24.233Z,17.40
2022-10-30T18:48:51.097Z,14.02
2022-10-30T18:51:21.726Z,8.60
2022-10-30T18:53:52.075Z,14.80
2022-10-30T18:56:27.399Z,16.38
2022-10-30T18:58:58.768Z,13.68
2022-10-30T19:01:32.230Z,11.35
2022-10-30T19:04:04.008Z,18.60
2022-10-30T19:06:32.903Z,12.35
2022-10-30T19:08:59.756Z,8.77
2022-10-30T19:11:28.226Z,6.13
2022-10-30T19:13:57.167Z,7.97
2022-10-30T19:16:26.965Z,10.45
2022-10-30T19:18:53.996Z,9.85
2022-10-30T19:21:23.182Z,6.65
2022-10-30T19:23:50.261Z,14.63
2022-10-30T19:26:17.733Z,10.52
2022-10-30T19:28:45.875Z,17.63
2022-10-30T19:31:18.589Z,8.10
2022-10-30T19:33:46.491Z,10.30
2022-10-30T19:36:36.578Z,24.10
2022-10-30T19:39:21.532Z,14.13
2022-10-30T19:41:48.511Z,11.35
2022-10-30T19:44:15.347Z,14.13
2022-10-30T19:46:42.139Z,8.45
2022-10-30T19:49:19.908Z,8.63
2022-10-30T19:51:47.397Z,9.20
2022-10-30T19:54:14.317Z,10.88
2022-10-30T19:56:43.532Z,7.53
2022-10-30T19:59:13.520Z,18.85
2022-10-30T20:01:41.824Z,14.35
2022-10-30T20:04:09.003Z,12.05
2022-10-30T20:06:36.025Z,13.50
2022-10-30T20:09:03.125Z,21.23
2022-10-30T20:11:31.946Z,13.55
2022-10-30T20:13:58.726Z,14.75
2022-10-30T20:16:25.565Z,22.25
2022-10-30T20:18:52.427Z,16.27
2022-10-30T20:21:19.559Z,16.50
2022-10-30T20:23:46.903Z,19.33
2022-10-30T20:26:27.394Z,18.30
2022-10-30T20:28:55.165Z,25.98
2022-10-30T20:31:22.234Z,23.45
2022-10-30T20:33:49.066Z,22.50
2022-10-30T20:36:16.071Z,22.50
2022-10-30T20:38:43.017Z,22.73
2022-10-30T20:41:23.515Z,22.90
2022-10-30T20:43:51.044Z,26.55
2022-10-30T20:46:18.411Z,32.55
2022-10-30T20:48:45.336Z,22.85
2022-10-30T20:51:12.431Z,33.70
2022-10-30T20:53:39.479Z,37.83
2022-10-30T20:56:06.603Z,31.80
2022-10-30T20:58:33.527Z,27.77
2022-10-30T21:01:00.388Z,26.60
2022-10-30T21:03:27.799Z,21.88
2022-10-30T21:06:00.252Z,30.65
2022-10-30T21:08:29.021Z,29.77
2022-10-30T21:11:04.053Z,21.35
2022-10-30T21:13:33.428Z,23.13
2022-10-30T21:16:02.521Z,37.88
2022-10-30T21:18:29.538Z,26.88
2022-10-30T21:21:08.550Z,35.83
2022-10-30T21:23:35.368Z,26.88
2022-10-30T21:26:04.372Z,20.83
2022-10-30T21:28:31.276Z,29.73
2022-10-30T21:31:07.266Z,22.48
2022-10-30T21:33:35.758Z,20.27
2022-10-30T21:36:12.975Z,25.70
2022-10-30T21:38:42.215Z,21.55
2022-10-30T21:41:11.147Z,18.80
2022-10-30T21:43:38.018Z,17.73
2022-10-30T21:46:12.696Z,29.70
2022-10-30T21:48:39.966Z,16.20
2022-10-30T21:51:09.146Z,25.05
2022-10-30T21:53:36.615Z,17.30
2022-10-30T21:56:05.825Z,12.55
2022-10-30T21:58:33.026Z,16.27
2022-10-30T22:00:59.872Z,12.73
2022-10-30T22:03:26.750Z,14.63
2022-10-30T22:05:53.842Z,35.15
2022-10-30T22:08:21.360Z,14.25
2022-10-30T22:10:48.202Z,13.32
2022-10-30T22:13:15.611Z,14.68
2022-10-30T22:15:42.463Z,34.30
2022-10-30T22:18:09.497Z,17.25
2022-10-30T22:20:36.286Z,23.65
2022-10-30T22:23:03.058Z,14.27
2022-10-30T22:25:29.859Z,15.18
2022-10-30T22:27:56.916Z,31.13
2022-10-30T22:30:23.825Z,15.10
2022-10-30T22:32:51.684Z,29.40
2022-10-30T22:35:18.579Z,23.77
2022-10-30T22:37:45.442Z,15.05
2022-10-30T22:40:12.334Z,12.85
2022-10-30T22:42:39.109Z,19.15
2022-10-30T22:45:06.425Z,16.15
2022-10-30T22:47:33.303Z,17.20
2022-10-30T22:50:00.324Z,14.93
2022-10-30T22:52:27.176Z,17.08
2022-10-30T22:54:54.060Z,16.05
2022-10-30T22:57:20.863Z,18.10
2022-10-30T22:59:47.659Z,52.35
2022-10-30T23:02:14.430Z,15.57
2022-10-30T23:04:41.646Z,20.38
2022-10-30T23:07:08.421Z,16.50
2022-10-30T23:09:35.221Z,20.15
2022-10-30T23:12:02.033Z,19.88
2022-10-30T23:14:28.938Z,13.95
2022-10-30T23:16:55.781Z,16.08
2022-10-30T23:19:22.666Z,19.63
2022-10-30T23:21:49.493Z,14.48
2022-10-30T23:24:16.380Z,12.32
2022-10-30T23:26:43.173Z,20.33
2022-10-30T23:29:10.114Z,11.75
2022-10-30T23:31:39.476Z,22.00
2022-10-30T23:34:11.112Z,27.67
2022-10-30T23:36:38.592Z,16.35
2022-10-30T23:39:08.718Z,18.52
2022-10-30T23:41:35.821Z,21.40
2022-10-30T23:44:06.180Z,22.08
2022-10-30T23:46:35.203Z,22.35
2022-10-30T23:49:02.561Z,14.50
2022-10-30T23:51:29.694Z,20.13
2022-10-30T23:53:56.640Z,13.10
2022-10-30T23:56:24.285Z,17.02
2022-10-30T23:58:52.637Z,11.88
